sensor_id;sensor_type;location;lat;lon;timestamp;temperature;humidity
3644;DHT22;1838;50.742;7.158;2024-01-30T00:00:01;8.10;99.90
3644;DHT22;1838;50.742;7.158;2024-01-30T00:02:26;8.00;99.90
3644;DHT22;1838;50.742;7.158;2024-01-30T00:04:52;7.90;99.90
3644;DHT22;1838;50.742;7.158;2024-01-30T00:07:17;7.80;99.90
3644;DHT22;1838;50.742;7.158;2024-01-30T00:09:43;7.70;99.90
3644;DHT22;1838;50.742;7.158;2024-01-30T00:12:11;7.60;99.90
3644;DHT22;1838;50.742;7.158;2024-01-30T00:14:36;7.50;99.90
3644;DHT22;1838;50.742;7.158;2024-01-30T00:17:02;7.50;99.90
3644;DHT22;1838;50.742;7.158;2024-01-30T00:19:27;7.40;99.90
3644;DHT22;1838;50.742;7.158;2024-01-30T00:21:53;7.40;99.90
3644;DHT22;1838;50.742;7.158;2024-01-30T00:24:18;7.30;99.90
3644;DHT22;1838;50.742;7.158;2024-01-30T00:26:44;7.20;99.90
3644;DHT22;1838;50.742;7.158;2024-01-30T00:29:09;7.00;99.90
3644;DHT22;1838;50.742;7.158;2024-01-30T00:31:36;6.80;99.90
3644;DHT22;1838;50.742;7.158;2024-01-30T00:34:01;6.60;99.90
3644;DHT22;1838;50.742;7.158;2024-01-30T00:36:27;6.50;99.90
3644;DHT22;1838;50.742;7.158;2024-01-30T00:38:55;6.50;99.90
3644;DHT22;1838;50.742;7.158;2024-01-30T00:41:20;6.40;99.90
3644;DHT22;1838;50.742;7.158;2024-01-30T00:43:46;6.30;99.90
3644;DHT22;1838;50.742;7.158;2024-01-30T00:46:11;6.30;99.90
3644;DHT22;1838;50.742;7.158;2024-01-30T00:48:37;6.40;99.90
3644;DHT22;1838;50.742;7.158;2024-01-30T00:51:02;6.60;99.90
3644;DHT22;1838;50.742;7.158;2024-01-30T00:53:28;6.70;99.90
3644;DHT22;1838;50.742;7.158;2024-01-30T00:55:53;6.80;99.90
3644;DHT22;1838;50.742;7.158;2024-01-30T00:58:19;6.90;99.90
3644;DHT22;1838;50.742;7.158;2024-01-30T01:00:45;7.00;99.90
3644;DHT22;1838;50.742;7.158;2024-01-30T01:03:10;7.10;99.90
3644;DHT22;1838;50.742;7.158;2024-01-30T01:05:36;7.20;99.90
3644;DHT22;1838;50.742;7.158;2024-01-30T01:08:01;7.20;99.90
3644;DHT22;1838;50.742;7.158;2024-01-30T01:10:27;7.10;99.90
3644;DHT22;1838;50.742;7.158;2024-01-30T01:12:53;7.00;99.90
3644;DHT22;1838;50.742;7.158;2024-01-30T01:15:19;6.80;99.90
3644;DHT22;1838;50.742;7.158;2024-01-30T01:17:44;6.70;99.90
3644;DHT22;1838;50.742;7.158;2024-01-30T01:20:10;6.80;99.90
3644;DHT22;1838;50.742;7.158;2024-01-30T01:22:36;6.90;99.90
3644;DHT22;1838;50.742;7.158;2024-01-30T01:25:01;7.10;99.90
3644;DHT22;1838;50.742;7.158;2024-01-30T01:27:27;7.10;99.90
3644;DHT22;1838;50.742;7.158;2024-01-30T01:29:53;7.00;99.90
3644;DHT22;1838;50.742;7.158;2024-01-30T01:32:19;7.00;99.90
3644;DHT22;1838;50.742;7.158;2024-01-30T01:34:45;7.10;99.90
3644;DHT22;1838;50.742;7.158;2024-01-30T01:37:10;7.20;99.90
3644;DHT22;1838;50.742;7.158;2024-01-30T01:39:36;7.40;99.90
3644;DHT22;1838;50.742;7.158;2024-01-30T01:42:01;7.50;99.90
3644;DHT22;1838;50.742;7.158;2024-01-30T01:44:27;7.70;99.90
3644;DHT22;1838;50.742;7.158;2024-01-30T01:46:54;7.70;99.90
3644;DHT22;1838;50.742;7.158;2024-01-30T01:49:20;7.80;99.90
3644;DHT22;1838;50.742;7.158;2024-01-30T01:51:47;7.90;99.90
3644;DHT22;1838;50.742;7.158;2024-01-30T01:54:14;7.90;99.90
3644;DHT22;1838;50.742;7.158;2024-01-30T01:56:42;8.00;99.90
3644;DHT22;1838;50.742;7.158;2024-01-30T01:59:08;8.10;99.90
3644;DHT22;1838;50.742;7.158;2024-01-30T02:01:37;8.10;99.90
3644;DHT22;1838;50.742;7.158;2024-01-30T02:04:04;8.10;99.90
3644;DHT22;1838;50.742;7.158;2024-01-30T02:06:31;8.20;99.90
3644;DHT22;1838;50.742;7.158;2024-01-30T02:08:57;8.30;99.90
3644;DHT22;1838;50.742;7.158;2024-01-30T02:11:23;8.30;99.90
3644;DHT22;1838;50.742;7.158;2024-01-30T02:13:49;8.40;99.90
3644;DHT22;1838;50.742;7.158;2024-01-30T02:16:15;8.40;99.90
3644;DHT22;1838;50.742;7.158;2024-01-30T02:18:42;8.50;99.90
3644;DHT22;1838;50.742;7.158;2024-01-30T02:21:10;8.50;99.90
3644;DHT22;1838;50.742;7.158;2024-01-30T02:23:36;8.50;99.90
3644;DHT22;1838;50.742;7.158;2024-01-30T02:26:03;8.50;99.90
3644;DHT22;1838;50.742;7.158;2024-01-30T02:28:28;8.50;99.90
3644;DHT22;1838;50.742;7.158;2024-01-30T02:30:54;8.50;99.90
3644;DHT22;1838;50.742;7.158;2024-01-30T02:33:19;8.50;99.90
3644;DHT22;1838;50.742;7.158;2024-01-30T02:35:47;8.50;99.90
3644;DHT22;1838;50.742;7.158;2024-01-30T02:38:12;8.40;99.90
3644;DHT22;1838;50.742;7.158;2024-01-30T02:40:38;8.40;99.90
3644;DHT22;1838;50.742;7.158;2024-01-30T02:43:04;8.40;99.90
3644;DHT22;1838;50.742;7.158;2024-01-30T02:45:30;8.40;99.90
3644;DHT22;1838;50.742;7.158;2024-01-30T02:47:55;8.40;99.90
3644;DHT22;1838;50.742;7.158;2024-01-30T02:50:21;8.40;99.90
3644;DHT22;1838;50.742;7.158;2024-01-30T02:52:46;8.40;99.90
3644;DHT22;1838;50.742;7.158;2024-01-30T02:55:12;8.40;99.90
3644;DHT22;1838;50.742;7.158;2024-01-30T02:57:38;8.40;99.90
3644;DHT22;1838;50.742;7.158;2024-01-30T03:00:04;8.40;99.90
3644;DHT22;1838;50.742;7.158;2024-01-30T03:02:32;8.40;99.90
3644;DHT22;1838;50.742;7.158;2024-01-30T03:04:57;8.50;99.90
3644;DHT22;1838;50.742;7.158;2024-01-30T03:07:23;8.40;99.90
3644;DHT22;1838;50.742;7.158;2024-01-30T03:09:49;8.40;99.90
3644;DHT22;1838;50.742;7.158;2024-01-30T03:12:14;8.40;99.90
3644;DHT22;1838;50.742;7.158;2024-01-30T03:14:40;8.40;99.90
3644;DHT22;1838;50.742;7.158;2024-01-30T03:17:05;8.40;99.90
3644;DHT22;1838;50.742;7.158;2024-01-30T03:19:31;8.40;99.90
3644;DHT22;1838;50.742;7.158;2024-01-30T03:21:56;8.40;99.90
3644;DHT22;1838;50.742;7.158;2024-01-30T03:24:22;8.40;99.90
3644;DHT22;1838;50.742;7.158;2024-01-30T03:26:47;8.30;99.90
3644;DHT22;1838;50.742;7.158;2024-01-30T03:29:13;8.20;99.90
3644;DHT22;1838;50.742;7.158;2024-01-30T03:31:40;8.20;99.90
3644;DHT22;1838;50.742;7.158;2024-01-30T03:34:05;8.20;99.90
3644;DHT22;1838;50.742;7.158;2024-01-30T03:36:31;8.10;99.90
3644;DHT22;1838;50.742;7.158;2024-01-30T03:38:59;8.10;99.90
3644;DHT22;1838;50.742;7.158;2024-01-30T03:41:24;8.10;99.90
3644;DHT22;1838;50.742;7.158;2024-01-30T03:43:50;8.00;99.90
3644;DHT22;1838;50.742;7.158;2024-01-30T03:46:16;8.00;99.90
3644;DHT22;1838;50.742;7.158;2024-01-30T03:48:41;8.00;99.90
3644;DHT22;1838;50.742;7.158;2024-01-30T03:51:07;8.00;99.90
3644;DHT22;1838;50.742;7.158;2024-01-30T03:53:33;8.00;99.90
3644;DHT22;1838;50.742;7.158;2024-01-30T03:55:58;8.00;99.90
3644;DHT22;1838;50.742;7.158;2024-01-30T03:58:23;8.00;99.90
3644;DHT22;1838;50.742;7.158;2024-01-30T04:00:49;8.10;99.90
3644;DHT22;1838;50.742;7.158;2024-01-30T04:03:15;8.10;99.90
3644;DHT22;1838;50.742;7.158;2024-01-30T04:05:41;8.10;99.90
3644;DHT22;1838;50.742;7.158;2024-01-30T04:08:07;8.00;99.90
3644;DHT22;1838;50.742;7.158;2024-01-30T04:10:33;8.00;99.90
3644;DHT22;1838;50.742;7.158;2024-01-30T04:12:58;8.10;99.90
3644;DHT22;1838;50.742;7.158;2024-01-30T04:15:24;8.10;99.90
3644;DHT22;1838;50.742;7.158;2024-01-30T04:17:50;8.10;99.90
3644;DHT22;1838;50.742;7.158;2024-01-30T04:20:16;8.00;99.90
3644;DHT22;1838;50.742;7.158;2024-01-30T04:22:45;8.00;99.90
3644;DHT22;1838;50.742;7.158;2024-01-30T04:25:12;8.00;99.90
3644;DHT22;1838;50.742;7.158;2024-01-30T04:27:38;8.10;99.90
3644;DHT22;1838;50.742;7.158;2024-01-30T04:30:04;8.10;99.90
3644;DHT22;1838;50.742;7.158;2024-01-30T04:32:29;8.10;99.90
3644;DHT22;1838;50.742;7.158;2024-01-30T04:34:55;8.20;99.90
3644;DHT22;1838;50.742;7.158;2024-01-30T04:37:20;8.20;99.90
3644;DHT22;1838;50.742;7.158;2024-01-30T04:39:46;8.30;99.90
3644;DHT22;1838;50.742;7.158;2024-01-30T04:42:11;8.30;99.90
3644;DHT22;1838;50.742;7.158;2024-01-30T04:44:37;8.30;99.90
3644;DHT22;1838;50.742;7.158;2024-01-30T04:47:03;8.40;99.90
3644;DHT22;1838;50.742;7.158;2024-01-30T04:49:30;8.40;99.90
3644;DHT22;1838;50.742;7.158;2024-01-30T04:51:55;8.30;99.90
3644;DHT22;1838;50.742;7.158;2024-01-30T04:54:21;8.30;99.90
3644;DHT22;1838;50.742;7.158;2024-01-30T04:56:47;8.30;99.90
3644;DHT22;1838;50.742;7.158;2024-01-30T04:59:12;8.30;99.90
3644;DHT22;1838;50.742;7.158;2024-01-30T05:01:38;8.30;99.90
3644;DHT22;1838;50.742;7.158;2024-01-30T05:04:03;8.30;99.90
3644;DHT22;1838;50.742;7.158;2024-01-30T05:06:29;8.20;99.90
3644;DHT22;1838;50.742;7.158;2024-01-30T05:08:55;8.20;99.90
3644;DHT22;1838;50.742;7.158;2024-01-30T05:11:21;8.20;99.90
3644;DHT22;1838;50.742;7.158;2024-01-30T05:13:46;8.10;99.90
3644;DHT22;1838;50.742;7.158;2024-01-30T05:16:12;8.10;99.90
3644;DHT22;1838;50.742;7.158;2024-01-30T05:18:38;8.00;99.90
3644;DHT22;1838;50.742;7.158;2024-01-30T05:21:04;8.00;99.90
3644;DHT22;1838;50.742;7.158;2024-01-30T05:23:29;8.00;99.90
3644;DHT22;1838;50.742;7.158;2024-01-30T05:25:55;8.00;99.90
3644;DHT22;1838;50.742;7.158;2024-01-30T05:28:20;7.90;99.90
3644;DHT22;1838;50.742;7.158;2024-01-30T05:30:45;7.90;99.90
3644;DHT22;1838;50.742;7.158;2024-01-30T05:33:11;7.80;99.90
3644;DHT22;1838;50.742;7.158;2024-01-30T05:35:37;7.80;99.90
3644;DHT22;1838;50.742;7.158;2024-01-30T05:38:03;7.80;99.90
3644;DHT22;1838;50.742;7.158;2024-01-30T05:40:30;7.80;99.90
3644;DHT22;1838;50.742;7.158;2024-01-30T05:42:55;7.80;99.90
3644;DHT22;1838;50.742;7.158;2024-01-30T05:45:21;7.80;99.90
3644;DHT22;1838;50.742;7.158;2024-01-30T05:47:48;7.90;99.90
3644;DHT22;1838;50.742;7.158;2024-01-30T05:50:14;7.90;99.90
3644;DHT22;1838;50.742;7.158;2024-01-30T05:52:40;7.90;99.90
3644;DHT22;1838;50.742;7.158;2024-01-30T05:55:05;7.90;99.90
3644;DHT22;1838;50.742;7.158;2024-01-30T05:57:31;7.90;99.90
3644;DHT22;1838;50.742;7.158;2024-01-30T06:00:16;8.00;99.90
3644;DHT22;1838;50.742;7.158;2024-01-30T06:02:42;8.00;99.90
3644;DHT22;1838;50.742;7.158;2024-01-30T06:05:08;8.00;99.90
3644;DHT22;1838;50.742;7.158;2024-01-30T06:07:33;8.10;99.90
3644;DHT22;1838;50.742;7.158;2024-01-30T06:09:59;8.20;99.90
3644;DHT22;1838;50.742;7.158;2024-01-30T06:12:26;8.30;99.90
3644;DHT22;1838;50.742;7.158;2024-01-30T06:14:52;8.20;99.90
3644;DHT22;1838;50.742;7.158;2024-01-30T06:17:19;8.20;99.90
3644;DHT22;1838;50.742;7.158;2024-01-30T06:19:45;8.20;99.90
3644;DHT22;1838;50.742;7.158;2024-01-30T06:22:10;8.20;99.90
3644;DHT22;1838;50.742;7.158;2024-01-30T06:24:36;8.20;99.90
3644;DHT22;1838;50.742;7.158;2024-01-30T06:27:02;8.20;99.90
3644;DHT22;1838;50.742;7.158;2024-01-30T06:29:27;8.10;99.90
3644;DHT22;1838;50.742;7.158;2024-01-30T06:31:53;8.00;99.90
3644;DHT22;1838;50.742;7.158;2024-01-30T06:34:18;8.00;99.90
3644;DHT22;1838;50.742;7.158;2024-01-30T06:36:44;7.90;99.90
3644;DHT22;1838;50.742;7.158;2024-01-30T06:39:09;7.90;99.90
3644;DHT22;1838;50.742;7.158;2024-01-30T06:41:35;7.90;99.90
3644;DHT22;1838;50.742;7.158;2024-01-30T06:44:02;7.90;99.90
3644;DHT22;1838;50.742;7.158;2024-01-30T06:46:29;7.80;99.90
3644;DHT22;1838;50.742;7.158;2024-01-30T06:48:55;7.80;99.90
3644;DHT22;1838;50.742;7.158;2024-01-30T06:51:20;7.80;99.90
3644;DHT22;1838;50.742;7.158;2024-01-30T06:53:46;7.80;99.90
3644;DHT22;1838;50.742;7.158;2024-01-30T06:56:11;7.80;99.90
3644;DHT22;1838;50.742;7.158;2024-01-30T06:58:37;7.80;99.90
3644;DHT22;1838;50.742;7.158;2024-01-30T07:01:02;7.70;99.90
3644;DHT22;1838;50.742;7.158;2024-01-30T07:03:28;7.70;99.90
3644;DHT22;1838;50.742;7.158;2024-01-30T07:05:53;7.60;99.90
3644;DHT22;1838;50.742;7.158;2024-01-30T07:08:19;7.60;99.90
3644;DHT22;1838;50.742;7.158;2024-01-30T07:10:44;7.70;99.90
3644;DHT22;1838;50.742;7.158;2024-01-30T07:13:11;7.70;99.90
3644;DHT22;1838;50.742;7.158;2024-01-30T07:15:36;7.70;99.90
3644;DHT22;1838;50.742;7.158;2024-01-30T07:18:03;7.80;99.90
3644;DHT22;1838;50.742;7.158;2024-01-30T07:20:30;7.80;99.90
3644;DHT22;1838;50.742;7.158;2024-01-30T07:23:00;7.80;99.90
3644;DHT22;1838;50.742;7.158;2024-01-30T07:25:26;7.90;99.90
3644;DHT22;1838;50.742;7.158;2024-01-30T07:27:55;7.90;99.90
3644;DHT22;1838;50.742;7.158;2024-01-30T07:30:21;7.80;99.90
3644;DHT22;1838;50.742;7.158;2024-01-30T07:32:47;7.80;99.90
3644;DHT22;1838;50.742;7.158;2024-01-30T07:35:13;7.90;99.90
3644;DHT22;1838;50.742;7.158;2024-01-30T07:37:39;7.90;99.90
3644;DHT22;1838;50.742;7.158;2024-01-30T07:40:05;7.90;99.90
3644;DHT22;1838;50.742;7.158;2024-01-30T07:42:31;8.00;99.90
3644;DHT22;1838;50.742;7.158;2024-01-30T07:44:56;8.00;99.90
3644;DHT22;1838;50.742;7.158;2024-01-30T07:47:22;8.10;99.90
3644;DHT22;1838;50.742;7.158;2024-01-30T07:49:47;8.10;99.90
3644;DHT22;1838;50.742;7.158;2024-01-30T07:52:13;8.00;99.90
3644;DHT22;1838;50.742;7.158;2024-01-30T07:54:38;8.00;99.90
3644;DHT22;1838;50.742;7.158;2024-01-30T07:57:05;8.00;99.90
3644;DHT22;1838;50.742;7.158;2024-01-30T07:59:30;8.00;99.90
3644;DHT22;1838;50.742;7.158;2024-01-30T08:01:56;8.00;99.90
3644;DHT22;1838;50.742;7.158;2024-01-30T08:04:21;8.00;99.90
3644;DHT22;1838;50.742;7.158;2024-01-30T08:06:47;8.00;99.90
3644;DHT22;1838;50.742;7.158;2024-01-30T08:09:12;8.00;99.90
3644;DHT22;1838;50.742;7.158;2024-01-30T08:11:38;8.00;99.90
3644;DHT22;1838;50.742;7.158;2024-01-30T08:14:03;8.00;99.90
3644;DHT22;1838;50.742;7.158;2024-01-30T08:16:29;8.00;99.90
3644;DHT22;1838;50.742;7.158;2024-01-30T08:18:54;8.10;99.90
3644;DHT22;1838;50.742;7.158;2024-01-30T08:21:22;8.00;99.90
3644;DHT22;1838;50.742;7.158;2024-01-30T08:23:48;8.00;99.90
3644;DHT22;1838;50.742;7.158;2024-01-30T08:26:13;7.90;99.90
3644;DHT22;1838;50.742;7.158;2024-01-30T08:28:39;8.00;99.90
3644;DHT22;1838;50.742;7.158;2024-01-30T08:31:04;8.00;99.90
3644;DHT22;1838;50.742;7.158;2024-01-30T08:33:30;8.00;99.90
3644;DHT22;1838;50.742;7.158;2024-01-30T08:35:55;8.10;99.90
3644;DHT22;1838;50.742;7.158;2024-01-30T08:38:21;8.10;99.90
3644;DHT22;1838;50.742;7.158;2024-01-30T08:40:46;8.10;99.90
3644;DHT22;1838;50.742;7.158;2024-01-30T08:43:12;8.10;99.90
3644;DHT22;1838;50.742;7.158;2024-01-30T08:45:37;8.20;99.90
3644;DHT22;1838;50.742;7.158;2024-01-30T08:48:03;8.20;99.90
3644;DHT22;1838;50.742;7.158;2024-01-30T08:50:29;8.20;99.90
3644;DHT22;1838;50.742;7.158;2024-01-30T08:52:55;8.10;99.90
3644;DHT22;1838;50.742;7.158;2024-01-30T08:55:21;8.20;99.90
3644;DHT22;1838;50.742;7.158;2024-01-30T08:57:47;8.20;99.90
3644;DHT22;1838;50.742;7.158;2024-01-30T09:00:13;8.30;99.90
3644;DHT22;1838;50.742;7.158;2024-01-30T09:02:39;8.30;99.90
3644;DHT22;1838;50.742;7.158;2024-01-30T09:05:04;8.40;99.90
3644;DHT22;1838;50.742;7.158;2024-01-30T09:07:30;8.40;99.90
3644;DHT22;1838;50.742;7.158;2024-01-30T09:09:55;8.50;99.90
3644;DHT22;1838;50.742;7.158;2024-01-30T09:12:21;8.60;99.90
3644;DHT22;1838;50.742;7.158;2024-01-30T09:14:46;8.60;99.90
3644;DHT22;1838;50.742;7.158;2024-01-30T09:17:12;8.70;99.90
3644;DHT22;1838;50.742;7.158;2024-01-30T09:19:38;8.70;99.90
3644;DHT22;1838;50.742;7.158;2024-01-30T09:22:04;8.70;99.90
3644;DHT22;1838;50.742;7.158;2024-01-30T09:24:29;8.70;99.90
3644;DHT22;1838;50.742;7.158;2024-01-30T09:26:55;8.80;99.90
3644;DHT22;1838;50.742;7.158;2024-01-30T09:29:21;8.80;99.90
3644;DHT22;1838;50.742;7.158;2024-01-30T09:31:47;8.80;99.90
3644;DHT22;1838;50.742;7.158;2024-01-30T09:34:13;8.90;99.90
3644;DHT22;1838;50.742;7.158;2024-01-30T09:36:39;8.90;99.90
3644;DHT22;1838;50.742;7.158;2024-01-30T09:39:04;9.10;99.90
3644;DHT22;1838;50.742;7.158;2024-01-30T09:41:33;9.10;99.90
3644;DHT22;1838;50.742;7.158;2024-01-30T09:44:03;9.20;99.90
3644;DHT22;1838;50.742;7.158;2024-01-30T09:46:31;9.30;99.90
3644;DHT22;1838;50.742;7.158;2024-01-30T09:48:57;9.40;99.90
3644;DHT22;1838;50.742;7.158;2024-01-30T09:51:24;9.50;99.90
3644;DHT22;1838;50.742;7.158;2024-01-30T09:53:50;9.60;99.90
3644;DHT22;1838;50.742;7.158;2024-01-30T09:56:16;9.70;99.90
3644;DHT22;1838;50.742;7.158;2024-01-30T09:58:42;9.90;99.90
3644;DHT22;1838;50.742;7.158;2024-01-30T10:01:08;10.00;99.90
3644;DHT22;1838;50.742;7.158;2024-01-30T10:03:33;10.10;99.90
3644;DHT22;1838;50.742;7.158;2024-01-30T10:05:59;10.20;99.90
3644;DHT22;1838;50.742;7.158;2024-01-30T10:08:26;10.40;99.90
3644;DHT22;1838;50.742;7.158;2024-01-30T10:10:52;10.50;99.90
3644;DHT22;1838;50.742;7.158;2024-01-30T10:13:18;10.50;99.90
3644;DHT22;1838;50.742;7.158;2024-01-30T10:15:44;10.70;99.90
3644;DHT22;1838;50.742;7.158;2024-01-30T10:18:13;10.80;99.90
3644;DHT22;1838;50.742;7.158;2024-01-30T10:20:38;10.90;99.90
3644;DHT22;1838;50.742;7.158;2024-01-30T10:23:04;11.00;99.90
3644;DHT22;1838;50.742;7.158;2024-01-30T10:25:31;11.10;99.90
3644;DHT22;1838;50.742;7.158;2024-01-30T10:27:57;11.20;99.90
3644;DHT22;1838;50.742;7.158;2024-01-30T10:30:23;11.20;99.90
3644;DHT22;1838;50.742;7.158;2024-01-30T10:32:50;11.30;99.90
3644;DHT22;1838;50.742;7.158;2024-01-30T10:35:15;11.40;99.90
3644;DHT22;1838;50.742;7.158;2024-01-30T10:37:43;11.40;99.90
3644;DHT22;1838;50.742;7.158;2024-01-30T10:40:12;11.50;99.90
3644;DHT22;1838;50.742;7.158;2024-01-30T10:42:43;11.50;99.90
3644;DHT22;1838;50.742;7.158;2024-01-30T10:45:09;11.40;99.90
3644;DHT22;1838;50.742;7.158;2024-01-30T10:47:36;11.40;99.90
3644;DHT22;1838;50.742;7.158;2024-01-30T10:50:03;11.30;99.90
3644;DHT22;1838;50.742;7.158;2024-01-30T10:52:29;11.20;99.90
3644;DHT22;1838;50.742;7.158;2024-01-30T10:54:55;11.20;99.90
3644;DHT22;1838;50.742;7.158;2024-01-30T10:57:25;11.10;99.90
3644;DHT22;1838;50.742;7.158;2024-01-30T10:59:56;11.20;99.90
3644;DHT22;1838;50.742;7.158;2024-01-30T11:02:22;11.30;99.90
3644;DHT22;1838;50.742;7.158;2024-01-30T11:04:49;11.30;99.90
3644;DHT22;1838;50.742;7.158;2024-01-30T11:07:19;11.40;99.90
3644;DHT22;1838;50.742;7.158;2024-01-30T11:12:27;11.40;99.90
3644;DHT22;1838;50.742;7.158;2024-01-30T11:15:02;11.30;99.90
3644;DHT22;1838;50.742;7.158;2024-01-30T11:17:53;11.30;99.90
3644;DHT22;1838;50.742;7.158;2024-01-30T11:20:25;11.30;99.90
3644;DHT22;1838;50.742;7.158;2024-01-30T11:22:53;11.30;99.90
3644;DHT22;1838;50.742;7.158;2024-01-30T11:25:20;11.30;99.90
3644;DHT22;1838;50.742;7.158;2024-01-30T11:27:49;11.30;99.90
3644;DHT22;1838;50.742;7.158;2024-01-30T11:30:28;11.30;99.90
3644;DHT22;1838;50.742;7.158;2024-01-30T11:33:08;11.40;99.90
3644;DHT22;1838;50.742;7.158;2024-01-30T11:35:36;11.30;99.90
3644;DHT22;1838;50.742;7.158;2024-01-30T11:38:03;11.40;99.90
3644;DHT22;1838;50.742;7.158;2024-01-30T11:40:29;11.40;99.90
3644;DHT22;1838;50.742;7.158;2024-01-30T11:42:56;11.40;99.90
3644;DHT22;1838;50.742;7.158;2024-01-30T11:45:23;11.40;99.90
3644;DHT22;1838;50.742;7.158;2024-01-30T11:47:49;11.30;99.90
3644;DHT22;1838;50.742;7.158;2024-01-30T11:50:14;11.30;99.90
3644;DHT22;1838;50.742;7.158;2024-01-30T11:52:40;11.30;99.90
3644;DHT22;1838;50.742;7.158;2024-01-30T11:55:07;11.30;99.90
3644;DHT22;1838;50.742;7.158;2024-01-30T11:57:33;11.30;99.90
3644;DHT22;1838;50.742;7.158;2024-01-30T12:00:00;11.30;99.90
3644;DHT22;1838;50.742;7.158;2024-01-30T12:02:26;11.30;99.90
3644;DHT22;1838;50.742;7.158;2024-01-30T12:04:52;11.40;99.90
3644;DHT22;1838;50.742;7.158;2024-01-30T12:07:17;11.40;99.90
3644;DHT22;1838;50.742;7.158;2024-01-30T12:09:52;11.30;99.90
3644;DHT22;1838;50.742;7.158;2024-01-30T12:12:18;11.30;99.90
3644;DHT22;1838;50.742;7.158;2024-01-30T12:14:44;11.30;99.90
3644;DHT22;1838;50.742;7.158;2024-01-30T12:17:10;11.30;99.90
3644;DHT22;1838;50.742;7.158;2024-01-30T12:19:36;11.40;99.90
3644;DHT22;1838;50.742;7.158;2024-01-30T12:22:02;11.40;99.90
3644;DHT22;1838;50.742;7.158;2024-01-30T12:24:28;11.40;99.90
3644;DHT22;1838;50.742;7.158;2024-01-30T12:26:59;11.50;99.90
3644;DHT22;1838;50.742;7.158;2024-01-30T12:29:24;11.50;99.90
3644;DHT22;1838;50.742;7.158;2024-01-30T12:31:53;11.50;99.90
3644;DHT22;1838;50.742;7.158;2024-01-30T12:34:19;11.60;99.90
3644;DHT22;1838;50.742;7.158;2024-01-30T12:36:47;11.70;99.90
3644;DHT22;1838;50.742;7.158;2024-01-30T12:39:14;11.70;99.90
3644;DHT22;1838;50.742;7.158;2024-01-30T12:41:40;11.70;99.90
3644;DHT22;1838;50.742;7.158;2024-01-30T12:44:06;11.70;99.90
3644;DHT22;1838;50.742;7.158;2024-01-30T12:46:34;11.70;99.90
3644;DHT22;1838;50.742;7.158;2024-01-30T12:48:59;11.70;99.90
3644;DHT22;1838;50.742;7.158;2024-01-30T12:51:25;11.70;99.90
3644;DHT22;1838;50.742;7.158;2024-01-30T12:53:50;11.70;99.90
3644;DHT22;1838;50.742;7.158;2024-01-30T12:56:16;11.60;99.90
3644;DHT22;1838;50.742;7.158;2024-01-30T12:58:42;11.50;99.90
3644;DHT22;1838;50.742;7.158;2024-01-30T13:01:08;11.40;99.90
3644;DHT22;1838;50.742;7.158;2024-01-30T13:03:34;11.30;99.90
3644;DHT22;1838;50.742;7.158;2024-01-30T13:06:00;11.30;99.90
3644;DHT22;1838;50.742;7.158;2024-01-30T13:08:25;11.20;99.90
3644;DHT22;1838;50.742;7.158;2024-01-30T13:10:51;11.20;99.90
3644;DHT22;1838;50.742;7.158;2024-01-30T13:13:17;11.30;99.90
3644;DHT22;1838;50.742;7.158;2024-01-30T13:15:42;11.30;99.90
3644;DHT22;1838;50.742;7.158;2024-01-30T13:18:08;11.30;99.90
3644;DHT22;1838;50.742;7.158;2024-01-30T13:20:33;11.40;99.90
3644;DHT22;1838;50.742;7.158;2024-01-30T13:22:59;11.40;99.90
3644;DHT22;1838;50.742;7.158;2024-01-30T13:25:24;11.50;99.90
3644;DHT22;1838;50.742;7.158;2024-01-30T13:27:50;11.60;99.90
3644;DHT22;1838;50.742;7.158;2024-01-30T13:30:15;11.60;99.90
3644;DHT22;1838;50.742;7.158;2024-01-30T13:32:41;11.70;99.90
3644;DHT22;1838;50.742;7.158;2024-01-30T13:35:09;11.70;99.90
3644;DHT22;1838;50.742;7.158;2024-01-30T13:37:35;11.80;99.90
3644;DHT22;1838;50.742;7.158;2024-01-30T13:40:01;11.80;99.90
3644;DHT22;1838;50.742;7.158;2024-01-30T13:42:26;11.90;99.90
3644;DHT22;1838;50.742;7.158;2024-01-30T13:44:52;11.90;99.90
3644;DHT22;1838;50.742;7.158;2024-01-30T13:47:18;11.90;99.90
3644;DHT22;1838;50.742;7.158;2024-01-30T13:49:46;11.80;99.90
3644;DHT22;1838;50.742;7.158;2024-01-30T13:52:13;11.80;99.90
3644;DHT22;1838;50.742;7.158;2024-01-30T13:54:38;11.80;99.90
3644;DHT22;1838;50.742;7.158;2024-01-30T13:57:04;11.90;99.90
3644;DHT22;1838;50.742;7.158;2024-01-30T13:59:30;11.90;99.90
3644;DHT22;1838;50.742;7.158;2024-01-30T14:01:56;11.90;99.90
3644;DHT22;1838;50.742;7.158;2024-01-30T14:04:21;11.90;99.90
3644;DHT22;1838;50.742;7.158;2024-01-30T14:06:47;12.00;99.90
3644;DHT22;1838;50.742;7.158;2024-01-30T14:09:12;12.00;99.90
3644;DHT22;1838;50.742;7.158;2024-01-30T14:11:41;12.00;99.90
3644;DHT22;1838;50.742;7.158;2024-01-30T14:14:07;12.10;99.90
3644;DHT22;1838;50.742;7.158;2024-01-30T14:16:32;12.00;99.90
3644;DHT22;1838;50.742;7.158;2024-01-30T14:18:58;12.00;99.90
3644;DHT22;1838;50.742;7.158;2024-01-30T14:21:23;12.00;99.90
3644;DHT22;1838;50.742;7.158;2024-01-30T14:23:49;11.90;99.90
3644;DHT22;1838;50.742;7.158;2024-01-30T14:26:15;11.90;99.90
3644;DHT22;1838;50.742;7.158;2024-01-30T14:28:40;12.00;99.90
3644;DHT22;1838;50.742;7.158;2024-01-30T14:31:06;12.00;99.90
3644;DHT22;1838;50.742;7.158;2024-01-30T14:33:31;12.00;99.90
3644;DHT22;1838;50.742;7.158;2024-01-30T14:35:59;12.00;99.90
3644;DHT22;1838;50.742;7.158;2024-01-30T14:38:25;12.00;99.90
3644;DHT22;1838;50.742;7.158;2024-01-30T14:40:51;12.00;99.90
3644;DHT22;1838;50.742;7.158;2024-01-30T14:43:16;12.00;99.90
3644;DHT22;1838;50.742;7.158;2024-01-30T14:45:42;12.10;99.90
3644;DHT22;1838;50.742;7.158;2024-01-30T14:48:08;12.00;99.90
3644;DHT22;1838;50.742;7.158;2024-01-30T14:50:34;12.10;99.90
3644;DHT22;1838;50.742;7.158;2024-01-30T14:52:59;12.00;99.90
3644;DHT22;1838;50.742;7.158;2024-01-30T14:55:25;12.00;99.90
3644;DHT22;1838;50.742;7.158;2024-01-30T14:57:51;12.00;99.90
3644;DHT22;1838;50.742;7.158;2024-01-30T15:00:17;11.90;99.90
3644;DHT22;1838;50.742;7.158;2024-01-30T15:02:43;11.90;99.90
3644;DHT22;1838;50.742;7.158;2024-01-30T15:05:09;11.80;99.90
3644;DHT22;1838;50.742;7.158;2024-01-30T15:07:36;11.80;99.90
3644;DHT22;1838;50.742;7.158;2024-01-30T15:10:02;11.90;99.90
3644;DHT22;1838;50.742;7.158;2024-01-30T15:12:28;11.90;99.90
3644;DHT22;1838;50.742;7.158;2024-01-30T15:14:54;11.90;99.90
3644;DHT22;1838;50.742;7.158;2024-01-30T15:17:20;12.00;99.90
3644;DHT22;1838;50.742;7.158;2024-01-30T15:19:48;12.10;99.90
3644;DHT22;1838;50.742;7.158;2024-01-30T15:22:16;12.20;99.90
3644;DHT22;1838;50.742;7.158;2024-01-30T15:24:41;12.20;99.90
3644;DHT22;1838;50.742;7.158;2024-01-30T15:27:07;12.20;99.90
3644;DHT22;1838;50.742;7.158;2024-01-30T15:29:32;12.30;99.90
3644;DHT22;1838;50.742;7.158;2024-01-30T15:31:58;12.30;99.90
3644;DHT22;1838;50.742;7.158;2024-01-30T15:34:23;12.30;99.90
3644;DHT22;1838;50.742;7.158;2024-01-30T15:36:49;12.20;99.90
3644;DHT22;1838;50.742;7.158;2024-01-30T15:39:15;12.20;99.90
3644;DHT22;1838;50.742;7.158;2024-01-30T15:41:42;12.30;99.90
3644;DHT22;1838;50.742;7.158;2024-01-30T15:44:08;12.30;99.90
3644;DHT22;1838;50.742;7.158;2024-01-30T15:46:33;12.40;99.90
3644;DHT22;1838;50.742;7.158;2024-01-30T15:48:59;12.40;99.90
3644;DHT22;1838;50.742;7.158;2024-01-30T15:51:26;12.30;99.90
3644;DHT22;1838;50.742;7.158;2024-01-30T15:53:52;12.30;99.90
3644;DHT22;1838;50.742;7.158;2024-01-30T15:56:18;12.30;99.90
3644;DHT22;1838;50.742;7.158;2024-01-30T15:58:43;12.40;99.90
3644;DHT22;1838;50.742;7.158;2024-01-30T16:01:14;12.40;99.90
3644;DHT22;1838;50.742;7.158;2024-01-30T16:03:40;12.50;99.90
3644;DHT22;1838;50.742;7.158;2024-01-30T16:06:05;12.60;99.90